sensor_id;sensor_type;location;lat;lon;timestamp;P1;durP1;ratioP1;P2;durP2;ratioP2
66987;SDS011;53908;51.464;-2.588;2022-10-31T00:01:14;19.80;;;2.83;;
66987;SDS011;53908;51.464;-2.588;2022-10-31T00:03:41;25.08;;;3.03;;
66987;SDS011;53908;51.464;-2.588;2022-10-31T00:06:06;25.45;;;3.80;;
66987;SDS011;53908;51.464;-2.588;2022-10-31T00:08:32;19.05;;;2.33;;
66987;SDS011;53908;51.464;-2.588;2022-10-31T00:10:57;29.20;;;3.20;;
66987;SDS011;53908;51.464;-2.588;2022-10-31T00:13:23;17.38;;;2.45;;
66987;SDS011;53908;51.464;-2.588;2022-10-31T00:15:48;24.45;;;2.80;;
66987;SDS011;53908;51.464;-2.588;2022-10-31T00:18:14;19.75;;;3.00;;
66987;SDS011;53908;51.464;-2.588;2022-10-31T00:20:39;23.98;;;2.72;;
66987;SDS011;53908;51.464;-2.588;2022-10-31T00:23:05;26.55;;;2.15;;
66987;SDS011;53908;51.464;-2.588;2022-10-31T00:25:38;22.60;;;2.58;;
66987;SDS011;53908;51.464;-2.588;2022-10-31T00:28:05;21.75;;;2.85;;
66987;SDS011;53908;51.464;-2.588;2022-10-31T00:30:31;18.63;;;2.38;;
66987;SDS011;53908;51.464;-2.588;2022-10-31T00:32:57;17.67;;;2.92;;
66987;SDS011;53908;51.464;-2.588;2022-10-31T00:35:22;15.02;;;2.10;;
66987;SDS011;53908;51.464;-2.588;2022-10-31T00:37:48;17.42;;;2.40;;
66987;SDS011;53908;51.464;-2.588;2022-10-31T00:40:13;32.40;;;3.25;;
66987;SDS011;53908;51.464;-2.588;2022-10-31T00:42:39;17.27;;;2.20;;
66987;SDS011;53908;51.464;-2.588;2022-10-31T00:45:07;22.98;;;2.83;;
66987;SDS011;53908;51.464;-2.588;2022-10-31T00:47:33;16.27;;;2.20;;
66987;SDS011;53908;51.464;-2.588;2022-10-31T00:49:58;21.40;;;2.50;;
66987;SDS011;53908;51.464;-2.588;2022-10-31T00:52:24;27.25;;;2.95;;
66987;SDS011;53908;51.464;-2.588;2022-10-31T00:54:49;12.27;;;2.00;;
66987;SDS011;53908;51.464;-2.588;2022-10-31T00:57:15;25.13;;;2.60;;
66987;SDS011;53908;51.464;-2.588;2022-10-31T00:59:40;22.17;;;2.70;;
66987;SDS011;53908;51.464;-2.588;2022-10-31T01:02:05;26.83;;;2.63;;
66987;SDS011;53908;51.464;-2.588;2022-10-31T01:04:31;25.17;;;2.30;;
66987;SDS011;53908;51.464;-2.588;2022-10-31T01:06:56;25.90;;;2.92;;
66987;SDS011;53908;51.464;-2.588;2022-10-31T01:09:21;17.42;;;2.13;;
66987;SDS011;53908;51.464;-2.588;2022-10-31T01:11:47;16.10;;;2.40;;
66987;SDS011;53908;51.464;-2.588;2022-10-31T01:14:12;19.17;;;2.65;;
66987;SDS011;53908;51.464;-2.588;2022-10-31T01:16:38;20.83;;;2.63;;
66987;SDS011;53908;51.464;-2.588;2022-10-31T01:19:03;19.52;;;2.20;;
66987;SDS011;53908;51.464;-2.588;2022-10-31T01:21:28;13.90;;;2.22;;
66987;SDS011;53908;51.464;-2.588;2022-10-31T01:23:54;21.88;;;2.78;;
66987;SDS011;53908;51.464;-2.588;2022-10-31T01:26:24;19.98;;;2.78;;
66987;SDS011;53908;51.464;-2.588;2022-10-31T01:28:52;27.05;;;2.40;;
66987;SDS011;53908;51.464;-2.588;2022-10-31T01:31:32;18.23;;;2.72;;
66987;SDS011;53908;51.464;-2.588;2022-10-31T01:33:59;19.52;;;2.85;;
66987;SDS011;53908;51.464;-2.588;2022-10-31T01:36:29;27.75;;;2.50;;
66987;SDS011;53908;51.464;-2.588;2022-10-31T01:39:00;13.30;;;2.00;;
66987;SDS011;53908;51.464;-2.588;2022-10-31T01:41:28;19.42;;;2.47;;
66987;SDS011;53908;51.464;-2.588;2022-10-31T01:43:56;19.40;;;2.78;;
66987;SDS011;53908;51.464;-2.588;2022-10-31T01:46:34;18.27;;;2.08;;
66987;SDS011;53908;51.464;-2.588;2022-10-31T01:49:05;22.80;;;3.22;;
66987;SDS011;53908;51.464;-2.588;2022-10-31T01:51:39;15.80;;;2.83;;
66987;SDS011;53908;51.464;-2.588;2022-10-31T01:54:08;14.82;;;2.88;;
66987;SDS011;53908;51.464;-2.588;2022-10-31T01:56:37;24.85;;;2.92;;
66987;SDS011;53908;51.464;-2.588;2022-10-31T01:59:05;15.90;;;2.28;;
66987;SDS011;53908;51.464;-2.588;2022-10-31T02:01:34;14.38;;;2.20;;
66987;SDS011;53908;51.464;-2.588;2022-10-31T02:04:00;16.00;;;1.73;;
66987;SDS011;53908;51.464;-2.588;2022-10-31T02:06:27;16.55;;;2.63;;
66987;SDS011;53908;51.464;-2.588;2022-10-31T02:08:58;17.58;;;2.65;;
66987;SDS011;53908;51.464;-2.588;2022-10-31T02:11:26;15.85;;;2.35;;
66987;SDS011;53908;51.464;-2.588;2022-10-31T02:13:52;19.98;;;2.65;;
66987;SDS011;53908;51.464;-2.588;2022-10-31T02:16:18;19.90;;;2.50;;
66987;SDS011;53908;51.464;-2.588;2022-10-31T02:18:43;14.68;;;2.13;;
66987;SDS011;53908;51.464;-2.588;2022-10-31T02:21:17;19.63;;;2.28;;
66987;SDS011;53908;51.464;-2.588;2022-10-31T02:32:29;19.00;;;1.83;;
66987;SDS011;53908;51.464;-2.588;2022-10-31T02:35:07;17.17;;;2.22;;
66987;SDS011;53908;51.464;-2.588;2022-10-31T02:37:51;16.67;;;2.30;;
66987;SDS011;53908;51.464;-2.588;2022-10-31T02:40:35;17.42;;;2.35;;
66987;SDS011;53908;51.464;-2.588;2022-10-31T02:43:06;16.40;;;2.75;;
66987;SDS011;53908;51.464;-2.588;2022-10-31T02:48:10;16.17;;;1.90;;
66987;SDS011;53908;51.464;-2.588;2022-10-31T02:50:40;16.65;;;1.98;;
66987;SDS011;53908;51.464;-2.588;2022-10-31T02:53:07;22.13;;;2.35;;
66987;SDS011;53908;51.464;-2.588;2022-10-31T02:58:06;14.00;;;1.88;;
66987;SDS011;53908;51.464;-2.588;2022-10-31T03:00:43;19.38;;;2.20;;
66987;SDS011;53908;51.464;-2.588;2022-10-31T03:03:33;16.77;;;2.07;;
66987;SDS011;53908;51.464;-2.588;2022-10-31T03:17:36;14.02;;;1.85;;
66987;SDS011;53908;51.464;-2.588;2022-10-31T03:20:05;20.85;;;3.03;;
66987;SDS011;53908;51.464;-2.588;2022-10-31T03:22:32;20.33;;;2.60;;
66987;SDS011;53908;51.464;-2.588;2022-10-31T03:25:00;13.90;;;2.00;;
66987;SDS011;53908;51.464;-2.588;2022-10-31T03:27:27;18.02;;;2.63;;
66987;SDS011;53908;51.464;-2.588;2022-10-31T03:29:56;19.60;;;2.25;;
66987;SDS011;53908;51.464;-2.588;2022-10-31T03:32:27;21.13;;;2.38;;
66987;SDS011;53908;51.464;-2.588;2022-10-31T03:34:57;15.98;;;2.50;;
66987;SDS011;53908;51.464;-2.588;2022-10-31T03:37:24;16.63;;;2.25;;
66987;SDS011;53908;51.464;-2.588;2022-10-31T03:39:52;31.48;;;2.83;;
66987;SDS011;53908;51.464;-2.588;2022-10-31T03:42:25;14.40;;;2.35;;
66987;SDS011;53908;51.464;-2.588;2022-10-31T03:45:28;17.20;;;2.25;;
66987;SDS011;53908;51.464;-2.588;2022-10-31T03:47:47;21.05;;;2.33;;
66987;SDS011;53908;51.464;-2.588;2022-10-31T03:50:13;17.02;;;2.50;;
66987;SDS011;53908;51.464;-2.588;2022-10-31T03:52:47;28.27;;;2.42;;
66987;SDS011;53908;51.464;-2.588;2022-10-31T03:58:03;19.23;;;2.47;;
66987;SDS011;53908;51.464;-2.588;2022-10-31T04:00:34;16.60;;;2.65;;
66987;SDS011;53908;51.464;-2.588;2022-10-31T04:03:03;18.17;;;2.30;;
66987;SDS011;53908;51.464;-2.588;2022-10-31T04:05:30;18.10;;;2.50;;
66987;SDS011;53908;51.464;-2.588;2022-10-31T04:07:55;15.88;;;2.50;;
66987;SDS011;53908;51.464;-2.588;2022-10-31T04:10:22;18.83;;;2.20;;
66987;SDS011;53908;51.464;-2.588;2022-10-31T04:12:50;14.27;;;2.05;;
66987;SDS011;53908;51.464;-2.588;2022-10-31T04:15:17;14.38;;;2.13;;
66987;SDS011;53908;51.464;-2.588;2022-10-31T04:17:44;23.27;;;2.90;;
66987;SDS011;53908;51.464;-2.588;2022-10-31T04:20:11;17.27;;;2.25;;
66987;SDS011;53908;51.464;-2.588;2022-10-31T04:22:41;16.23;;;2.72;;
66987;SDS011;53908;51.464;-2.588;2022-10-31T04:25:06;14.70;;;2.33;;
66987;SDS011;53908;51.464;-2.588;2022-10-31T04:27:32;15.00;;;2.15;;
66987;SDS011;53908;51.464;-2.588;2022-10-31T04:29:57;20.08;;;2.60;;
66987;SDS011;53908;51.464;-2.588;2022-10-31T04:32:24;13.93;;;1.65;;
66987;SDS011;53908;51.464;-2.588;2022-10-31T04:34:49;22.08;;;2.22;;
66987;SDS011;53908;51.464;-2.588;2022-10-31T04:37:15;23.85;;;2.33;;
66987;SDS011;53908;51.464;-2.588;2022-10-31T04:39:40;22.20;;;2.83;;
66987;SDS011;53908;51.464;-2.588;2022-10-31T04:42:06;25.27;;;2.50;;
66987;SDS011;53908;51.464;-2.588;2022-10-31T04:44:31;14.07;;;1.90;;
66987;SDS011;53908;51.464;-2.588;2022-10-31T04:46:56;20.77;;;2.35;;
66987;SDS011;53908;51.464;-2.588;2022-10-31T04:49:22;20.23;;;2.20;;
66987;SDS011;53908;51.464;-2.588;2022-10-31T04:51:47;13.48;;;1.95;;
66987;SDS011;53908;51.464;-2.588;2022-10-31T04:54:13;20.95;;;2.28;;
66987;SDS011;53908;51.464;-2.588;2022-10-31T04:56:38;12.68;;;2.45;;
66987;SDS011;53908;51.464;-2.588;2022-10-31T04:59:03;16.92;;;2.78;;
66987;SDS011;53908;51.464;-2.588;2022-10-31T05:01:29;16.75;;;2.35;;
66987;SDS011;53908;51.464;-2.588;2022-10-31T05:03:54;19.35;;;2.50;;
66987;SDS011;53908;51.464;-2.588;2022-10-31T05:06:20;20.27;;;2.53;;
66987;SDS011;53908;51.464;-2.588;2022-10-31T05:08:45;19.27;;;2.00;;
66987;SDS011;53908;51.464;-2.588;2022-10-31T05:11:10;18.50;;;2.53;;
66987;SDS011;53908;51.464;-2.588;2022-10-31T05:13:36;20.50;;;3.13;;
66987;SDS011;53908;51.464;-2.588;2022-10-31T05:16:01;16.90;;;2.10;;
66987;SDS011;53908;51.464;-2.588;2022-10-31T05:18:27;24.65;;;2.42;;
66987;SDS011;53908;51.464;-2.588;2022-10-31T05:20:53;18.02;;;2.40;;
66987;SDS011;53908;51.464;-2.588;2022-10-31T05:23:18;14.90;;;1.92;;
66987;SDS011;53908;51.464;-2.588;2022-10-31T05:25:43;13.80;;;2.20;;
66987;SDS011;53908;51.464;-2.588;2022-10-31T05:28:09;16.48;;;2.60;;
66987;SDS011;53908;51.464;-2.588;2022-10-31T05:30:34;25.33;;;2.70;;
66987;SDS011;53908;51.464;-2.588;2022-10-31T05:33:00;20.73;;;2.78;;
66987;SDS011;53908;51.464;-2.588;2022-10-31T05:35:30;16.33;;;2.10;;
66987;SDS011;53908;51.464;-2.588;2022-10-31T05:37:56;18.40;;;2.83;;
66987;SDS011;53908;51.464;-2.588;2022-10-31T05:40:23;22.40;;;2.35;;
66987;SDS011;53908;51.464;-2.588;2022-10-31T05:42:52;21.23;;;2.45;;
66987;SDS011;53908;51.464;-2.588;2022-10-31T05:45:19;14.43;;;2.50;;
66987;SDS011;53908;51.464;-2.588;2022-10-31T05:47:51;15.82;;;2.28;;
66987;SDS011;53908;51.464;-2.588;2022-10-31T05:50:24;19.15;;;2.38;;
66987;SDS011;53908;51.464;-2.588;2022-10-31T05:53:08;17.40;;;2.38;;
66987;SDS011;53908;51.464;-2.588;2022-10-31T05:55:34;17.15;;;2.67;;
66987;SDS011;53908;51.464;-2.588;2022-10-31T05:57:59;13.40;;;2.08;;
66987;SDS011;53908;51.464;-2.588;2022-10-31T06:00:25;25.48;;;2.60;;
66987;SDS011;53908;51.464;-2.588;2022-10-31T06:02:57;23.13;;;2.97;;
66987;SDS011;53908;51.464;-2.588;2022-10-31T06:05:26;12.35;;;1.85;;
66987;SDS011;53908;51.464;-2.588;2022-10-31T06:07:52;17.92;;;2.55;;
66987;SDS011;53908;51.464;-2.588;2022-10-31T06:10:17;25.63;;;3.05;;
66987;SDS011;53908;51.464;-2.588;2022-10-31T06:12:45;15.15;;;2.15;;
66987;SDS011;53908;51.464;-2.588;2022-10-31T06:15:11;19.77;;;2.50;;
66987;SDS011;53908;51.464;-2.588;2022-10-31T06:17:37;19.17;;;2.65;;
66987;SDS011;53908;51.464;-2.588;2022-10-31T06:20:02;19.50;;;2.20;;
66987;SDS011;53908;51.464;-2.588;2022-10-31T06:22:29;17.08;;;2.25;;
66987;SDS011;53908;51.464;-2.588;2022-10-31T06:24:54;12.98;;;2.13;;
66987;SDS011;53908;51.464;-2.588;2022-10-31T06:27:20;17.58;;;2.45;;
66987;SDS011;53908;51.464;-2.588;2022-10-31T06:29:45;14.43;;;2.10;;
66987;SDS011;53908;51.464;-2.588;2022-10-31T06:32:11;15.70;;;2.00;;
66987;SDS011;53908;51.464;-2.588;2022-10-31T06:34:37;13.93;;;1.85;;
66987;SDS011;53908;51.464;-2.588;2022-10-31T06:37:05;21.48;;;3.38;;
66987;SDS011;53908;51.464;-2.588;2022-10-31T06:39:31;20.55;;;2.33;;
66987;SDS011;53908;51.464;-2.588;2022-10-31T06:41:56;16.20;;;2.35;;
66987;SDS011;53908;51.464;-2.588;2022-10-31T06:44:22;17.63;;;2.40;;
66987;SDS011;53908;51.464;-2.588;2022-10-31T06:46:47;17.10;;;2.35;;
66987;SDS011;53908;51.464;-2.588;2022-10-31T06:49:13;16.60;;;2.72;;
66987;SDS011;53908;51.464;-2.588;2022-10-31T06:51:38;18.33;;;2.20;;
66987;SDS011;53908;51.464;-2.588;2022-10-31T06:54:03;18.35;;;2.05;;
66987;SDS011;53908;51.464;-2.588;2022-10-31T06:56:29;22.63;;;2.47;;
66987;SDS011;53908;51.464;-2.588;2022-10-31T06:58:57;18.00;;;2.45;;
66987;SDS011;53908;51.464;-2.588;2022-10-31T07:01:23;25.88;;;2.60;;
66987;SDS011;53908;51.464;-2.588;2022-10-31T07:03:48;17.48;;;2.50;;
66987;SDS011;53908;51.464;-2.588;2022-10-31T07:06:13;19.77;;;2.92;;
66987;SDS011;53908;51.464;-2.588;2022-10-31T07:08:39;17.88;;;2.20;;
66987;SDS011;53908;51.464;-2.588;2022-10-31T07:11:04;17.05;;;2.38;;
66987;SDS011;53908;51.464;-2.588;2022-10-31T07:13:30;21.02;;;2.45;;
66987;SDS011;53908;51.464;-2.588;2022-10-31T07:15:59;16.20;;;2.72;;
66987;SDS011;53908;51.464;-2.588;2022-10-31T07:18:25;20.13;;;2.47;;
66987;SDS011;53908;51.464;-2.588;2022-10-31T07:20:51;19.35;;;2.90;;
66987;SDS011;53908;51.464;-2.588;2022-10-31T07:23:17;17.50;;;2.80;;
66987;SDS011;53908;51.464;-2.588;2022-10-31T07:25:42;16.80;;;2.97;;
66987;SDS011;53908;51.464;-2.588;2022-10-31T07:28:08;19.38;;;2.50;;
66987;SDS011;53908;51.464;-2.588;2022-10-31T07:30:34;15.23;;;2.22;;
66987;SDS011;53908;51.464;-2.588;2022-10-31T07:32:59;13.80;;;2.13;;
66987;SDS011;53908;51.464;-2.588;2022-10-31T07:35:26;12.18;;;2.05;;
66987;SDS011;53908;51.464;-2.588;2022-10-31T07:37:52;19.92;;;2.40;;
66987;SDS011;53908;51.464;-2.588;2022-10-31T07:40:18;10.52;;;1.67;;
66987;SDS011;53908;51.464;-2.588;2022-10-31T07:42:45;17.25;;;2.58;;
66987;SDS011;53908;51.464;-2.588;2022-10-31T07:45:13;17.65;;;2.55;;
66987;SDS011;53908;51.464;-2.588;2022-10-31T07:47:40;11.20;;;2.25;;
66987;SDS011;53908;51.464;-2.588;2022-10-31T07:50:10;15.30;;;2.45;;
66987;SDS011;53908;51.464;-2.588;2022-10-31T07:52:36;13.00;;;2.00;;
66987;SDS011;53908;51.464;-2.588;2022-10-31T07:55:02;17.35;;;2.45;;
66987;SDS011;53908;51.464;-2.588;2022-10-31T07:57:28;13.20;;;2.03;;
66987;SDS011;53908;51.464;-2.588;2022-10-31T07:59:54;16.15;;;2.45;;
66987;SDS011;53908;51.464;-2.588;2022-10-31T08:02:19;16.73;;;2.55;;
66987;SDS011;53908;51.464;-2.588;2022-10-31T08:04:45;17.08;;;4.05;;
66987;SDS011;53908;51.464;-2.588;2022-10-31T08:07:10;15.95;;;2.40;;
66987;SDS011;53908;51.464;-2.588;2022-10-31T08:09:36;17.08;;;2.15;;
66987;SDS011;53908;51.464;-2.588;2022-10-31T08:12:01;15.15;;;2.10;;
66987;SDS011;53908;51.464;-2.588;2022-10-31T08:14:27;15.05;;;2.17;;
66987;SDS011;53908;51.464;-2.588;2022-10-31T08:16:53;12.95;;;1.98;;
66987;SDS011;53908;51.464;-2.588;2022-10-31T08:19:18;16.58;;;2.63;;
66987;SDS011;53908;51.464;-2.588;2022-10-31T08:21:44;15.27;;;2.00;;
66987;SDS011;53908;51.464;-2.588;2022-10-31T08:24:10;15.07;;;2.13;;
66987;SDS011;53908;51.464;-2.588;2022-10-31T08:26:35;14.20;;;1.98;;
66987;SDS011;53908;51.464;-2.588;2022-10-31T08:29:00;14.32;;;2.03;;
66987;SDS011;53908;51.464;-2.588;2022-10-31T08:31:26;18.10;;;2.05;;
66987;SDS011;53908;51.464;-2.588;2022-10-31T08:33:53;17.00;;;2.00;;
66987;SDS011;53908;51.464;-2.588;2022-10-31T08:36:19;19.52;;;2.45;;
66987;SDS011;53908;51.464;-2.588;2022-10-31T08:38:46;12.40;;;1.85;;
66987;SDS011;53908;51.464;-2.588;2022-10-31T08:41:12;18.33;;;2.17;;
66987;SDS011;53908;51.464;-2.588;2022-10-31T08:43:38;11.23;;;1.90;;
66987;SDS011;53908;51.464;-2.588;2022-10-31T08:46:03;15.52;;;2.35;;
66987;SDS011;53908;51.464;-2.588;2022-10-31T08:48:29;8.77;;;1.98;;
66987;SDS011;53908;51.464;-2.588;2022-10-31T08:50:56;12.38;;;1.88;;
66987;SDS011;53908;51.464;-2.588;2022-10-31T08:53:23;13.23;;;2.05;;
66987;SDS011;53908;51.464;-2.588;2022-10-31T08:55:49;19.77;;;2.20;;
66987;SDS011;53908;51.464;-2.588;2022-10-31T08:58:15;12.13;;;2.20;;
66987;SDS011;53908;51.464;-2.588;2022-10-31T09:00:42;18.65;;;2.20;;
66987;SDS011;53908;51.464;-2.588;2022-10-31T09:03:12;11.25;;;1.90;;
66987;SDS011;53908;51.464;-2.588;2022-10-31T09:05:39;18.27;;;2.38;;
66987;SDS011;53908;51.464;-2.588;2022-10-31T09:08:05;15.93;;;2.45;;
66987;SDS011;53908;51.464;-2.588;2022-10-31T09:10:31;11.20;;;1.80;;
66987;SDS011;53908;51.464;-2.588;2022-10-31T09:13:03;13.93;;;1.90;;
66987;SDS011;53908;51.464;-2.588;2022-10-31T09:15:33;16.45;;;2.00;;
66987;SDS011;53908;51.464;-2.588;2022-10-31T09:17:59;15.02;;;2.03;;
66987;SDS011;53908;51.464;-2.588;2022-10-31T09:20:25;11.70;;;1.85;;
66987;SDS011;53908;51.464;-2.588;2022-10-31T09:22:58;17.35;;;2.30;;
66987;SDS011;53908;51.464;-2.588;2022-10-31T09:25:30;9.93;;;1.88;;
66987;SDS011;53908;51.464;-2.588;2022-10-31T09:27:56;19.20;;;2.45;;
66987;SDS011;53908;51.464;-2.588;2022-10-31T09:30:22;15.55;;;2.20;;
66987;SDS011;53908;51.464;-2.588;2022-10-31T09:32:48;13.13;;;2.08;;
66987;SDS011;53908;51.464;-2.588;2022-10-31T09:35:20;12.55;;;2.20;;
66987;SDS011;53908;51.464;-2.588;2022-10-31T09:37:45;13.38;;;2.08;;
66987;SDS011;53908;51.464;-2.588;2022-10-31T09:40:11;15.43;;;2.53;;
66987;SDS011;53908;51.464;-2.588;2022-10-31T09:45:22;14.45;;;2.17;;
66987;SDS011;53908;51.464;-2.588;2022-10-31T09:48:09;11.73;;;1.92;;
66987;SDS011;53908;51.464;-2.588;2022-10-31T09:51:03;16.45;;;2.25;;
66987;SDS011;53908;51.464;-2.588;2022-10-31T09:53:34;20.65;;;2.97;;
66987;SDS011;53908;51.464;-2.588;2022-10-31T09:56:11;10.95;;;1.75;;
66987;SDS011;53908;51.464;-2.588;2022-10-31T09:58:42;11.98;;;1.95;;
66987;SDS011;53908;51.464;-2.588;2022-10-31T10:01:34;11.73;;;2.25;;
66987;SDS011;53908;51.464;-2.588;2022-10-31T10:06:39;12.23;;;2.00;;
66987;SDS011;53908;51.464;-2.588;2022-10-31T10:09:10;17.33;;;2.47;;
66987;SDS011;53908;51.464;-2.588;2022-10-31T10:22:55;14.30;;;1.85;;
66987;SDS011;53908;51.464;-2.588;2022-10-31T10:25:39;15.52;;;2.22;;
66987;SDS011;53908;51.464;-2.588;2022-10-31T10:33:39;13.57;;;1.67;;
66987;SDS011;53908;51.464;-2.588;2022-10-31T10:36:37;11.13;;;2.00;;
66987;SDS011;53908;51.464;-2.588;2022-10-31T10:39:40;11.95;;;1.70;;
66987;SDS011;53908;51.464;-2.588;2022-10-31T10:42:04;12.88;;;1.70;;
66987;SDS011;53908;51.464;-2.588;2022-10-31T10:44:53;11.50;;;1.65;;
66987;SDS011;53908;51.464;-2.588;2022-10-31T10:47:44;11.68;;;1.80;;
66987;SDS011;53908;51.464;-2.588;2022-10-31T10:50:15;17.25;;;2.38;;
66987;SDS011;53908;51.464;-2.588;2022-10-31T10:56:02;11.35;;;1.63;;
66987;SDS011;53908;51.464;-2.588;2022-10-31T10:58:43;10.38;;;1.52;;
66987;SDS011;53908;51.464;-2.588;2022-10-31T11:01:10;12.07;;;1.58;;
66987;SDS011;53908;51.464;-2.588;2022-10-31T11:03:37;6.43;;;1.50;;
66987;SDS011;53908;51.464;-2.588;2022-10-31T11:06:03;6.18;;;1.70;;
66987;SDS011;53908;51.464;-2.588;2022-10-31T11:08:35;7.40;;;1.70;;
66987;SDS011;53908;51.464;-2.588;2022-10-31T11:13:28;9.30;;;1.80;;
66987;SDS011;53908;51.464;-2.588;2022-10-31T11:16:08;9.90;;;1.52;;
66987;SDS011;53908;51.464;-2.588;2022-10-31T11:18:45;11.73;;;1.65;;
66987;SDS011;53908;51.464;-2.588;2022-10-31T11:21:19;8.02;;;1.63;;
66987;SDS011;53908;51.464;-2.588;2022-10-31T11:23:46;8.70;;;1.73;;
66987;SDS011;53908;51.464;-2.588;2022-10-31T11:26:19;9.05;;;1.58;;
66987;SDS011;53908;51.464;-2.588;2022-10-31T11:28:55;8.93;;;1.88;;
66987;SDS011;53908;51.464;-2.588;2022-10-31T11:31:21;14.13;;;2.50;;
66987;SDS011;53908;51.464;-2.588;2022-10-31T11:33:48;10.75;;;1.83;;
66987;SDS011;53908;51.464;-2.588;2022-10-31T11:36:20;13.18;;;1.55;;
66987;SDS011;53908;51.464;-2.588;2022-10-31T11:38:47;7.95;;;1.50;;
66987;SDS011;53908;51.464;-2.588;2022-10-31T11:41:14;10.75;;;1.45;;
66987;SDS011;53908;51.464;-2.588;2022-10-31T11:43:46;10.05;;;1.60;;
66987;SDS011;53908;51.464;-2.588;2022-10-31T11:46:17;5.53;;;1.70;;
66987;SDS011;53908;51.464;-2.588;2022-10-31T11:48:47;8.27;;;1.58;;
66987;SDS011;53908;51.464;-2.588;2022-10-31T11:51:20;5.90;;;1.40;;
66987;SDS011;53908;51.464;-2.588;2022-10-31T11:53:57;13.50;;;1.88;;
66987;SDS011;53908;51.464;-2.588;2022-10-31T11:56:23;3.65;;;1.13;;
66987;SDS011;53908;51.464;-2.588;2022-10-31T11:59:03;9.65;;;2.33;;
66987;SDS011;53908;51.464;-2.588;2022-10-31T12:01:31;9.23;;;2.13;;
66987;SDS011;53908;51.464;-2.588;2022-10-31T12:04:07;9.05;;;1.70;;
66987;SDS011;53908;51.464;-2.588;2022-10-31T12:06:35;6.88;;;1.80;;
66987;SDS011;53908;51.464;-2.588;2022-10-31T12:09:02;7.93;;;1.50;;
66987;SDS011;53908;51.464;-2.588;2022-10-31T12:11:57;11.73;;;1.73;;
66987;SDS011;53908;51.464;-2.588;2022-10-31T12:28:43;7.93;;;1.50;;
66987;SDS011;53908;51.464;-2.588;2022-10-31T12:31:24;7.72;;;1.17;;
66987;SDS011;53908;51.464;-2.588;2022-10-31T12:34:13;8.07;;;1.80;;
66987;SDS011;53908;51.464;-2.588;2022-10-31T12:40:05;4.10;;;1.17;;
66987;SDS011;53908;51.464;-2.588;2022-10-31T13:01:35;5.68;;;1.33;;
66987;SDS011;53908;51.464;-2.588;2022-10-31T13:04:12;8.88;;;1.17;;
66987;SDS011;53908;51.464;-2.588;2022-10-31T13:06:42;3.95;;;1.00;;
66987;SDS011;53908;51.464;-2.588;2022-10-31T13:09:18;4.47;;;1.20;;
66987;SDS011;53908;51.464;-2.588;2022-10-31T13:11:53;4.63;;;1.02;;
66987;SDS011;53908;51.464;-2.588;2022-10-31T13:17:43;3.72;;;1.20;;
66987;SDS011;53908;51.464;-2.588;2022-10-31T13:23:08;9.02;;;1.30;;
66987;SDS011;53908;51.464;-2.588;2022-10-31T13:25:44;5.50;;;1.25;;
66987;SDS011;53908;51.464;-2.588;2022-10-31T13:28:22;6.30;;;1.25;;
66987;SDS011;53908;51.464;-2.588;2022-10-31T13:31:01;5.05;;;1.15;;
66987;SDS011;53908;51.464;-2.588;2022-10-31T13:33:49;5.13;;;1.05;;
66987;SDS011;53908;51.464;-2.588;2022-10-31T13:38:58;3.78;;;1.17;;
66987;SDS011;53908;51.464;-2.588;2022-10-31T13:41:32;7.03;;;1.42;;
66987;SDS011;53908;51.464;-2.588;2022-10-31T13:44:05;8.45;;;1.33;;
66987;SDS011;53908;51.464;-2.588;2022-10-31T13:48:56;9.57;;;1.40;;
66987;SDS011;53908;51.464;-2.588;2022-10-31T13:51:32;4.93;;;1.00;;
66987;SDS011;53908;51.464;-2.588;2022-10-31T13:54:01;5.32;;;1.08;;
66987;SDS011;53908;51.464;-2.588;2022-10-31T13:56:32;3.90;;;1.42;;
66987;SDS011;53908;51.464;-2.588;2022-10-31T13:59:13;3.95;;;1.00;;
66987;SDS011;53908;51.464;-2.588;2022-10-31T14:01:51;2.45;;;0.93;;
66987;SDS011;53908;51.464;-2.588;2022-10-31T14:04:21;6.18;;;1.00;;
66987;SDS011;53908;51.464;-2.588;2022-10-31T14:09:28;6.13;;;1.70;;
66987;SDS011;53908;51.464;-2.588;2022-10-31T14:12:03;2.80;;;0.80;;
66987;SDS011;53908;51.464;-2.588;2022-10-31T14:14:34;4.45;;;1.40;;
66987;SDS011;53908;51.464;-2.588;2022-10-31T14:17:05;6.10;;;1.30;;
66987;SDS011;53908;51.464;-2.588;2022-10-31T14:19:31;10.50;;;1.20;;
66987;SDS011;53908;51.464;-2.588;2022-10-31T14:21:56;5.00;;;1.40;;
66987;SDS011;53908;51.464;-2.588;2022-10-31T14:26:54;6.97;;;1.30;;
66987;SDS011;53908;51.464;-2.588;2022-10-31T14:29:25;5.50;;;1.20;;
66987;SDS011;53908;51.464;-2.588;2022-10-31T14:34:29;5.95;;;1.30;;
66987;SDS011;53908;51.464;-2.588;2022-10-31T14:45:04;4.60;;;1.10;;
66987;SDS011;53908;51.464;-2.588;2022-10-31T14:47:52;5.97;;;1.38;;
66987;SDS011;53908;51.464;-2.588;2022-10-31T14:53:18;3.10;;;1.00;;
66987;SDS011;53908;51.464;-2.588;2022-10-31T14:55:46;7.60;;;1.10;;
66987;SDS011;53908;51.464;-2.588;2022-10-31T14:58:15;8.77;;;1.15;;
66987;SDS011;53908;51.464;-2.588;2022-10-31T15:01:02;6.28;;;1.30;;
66987;SDS011;53908;51.464;-2.588;2022-10-31T15:03:30;5.43;;;1.13;;
66987;SDS011;53908;51.464;-2.588;2022-10-31T15:05:58;5.95;;;1.33;;
66987;SDS011;53908;51.464;-2.588;2022-10-31T15:08:34;5.55;;;4.18;;
66987;SDS011;53908;51.464;-2.588;2022-10-31T15:11:14;6.43;;;2.38;;
66987;SDS011;53908;51.464;-2.588;2022-10-31T15:13:46;5.88;;;2.45;;
66987;SDS011;53908;51.464;-2.588;2022-10-31T15:16:17;6.57;;;1.88;;
66987;SDS011;53908;51.464;-2.588;2022-10-31T15:18:54;4.80;;;1.90;;
66987;SDS011;53908;51.464;-2.588;2022-10-31T15:21:22;4.68;;;1.60;;
66987;SDS011;53908;51.464;-2.588;2022-10-31T15:23:49;7.68;;;1.70;;
66987;SDS011;53908;51.464;-2.588;2022-10-31T15:26:17;4.78;;;1.50;;
66987;SDS011;53908;51.464;-2.588;2022-10-31T15:28:44;9.60;;;1.90;;
66987;SDS011;53908;51.464;-2.588;2022-10-31T15:31:15;6.95;;;2.22;;
66987;SDS011;53908;51.464;-2.588;2022-10-31T15:33:42;7.30;;;1.48;;
66987;SDS011;53908;51.464;-2.588;2022-10-31T15:36:23;5.47;;;1.70;;
66987;SDS011;53908;51.464;-2.588;2022-10-31T15:38:50;7.30;;;1.52;;
66987;SDS011;53908;51.464;-2.588;2022-10-31T15:43:49;5.55;;;1.27;;
66987;SDS011;53908;51.464;-2.588;2022-10-31T15:46:14;5.88;;;1.70;;
66987;SDS011;53908;51.464;-2.588;2022-10-31T15:48:43;12.80;;;2.10;;
66987;SDS011;53908;51.464;-2.588;2022-10-31T15:51:09;10.40;;;3.30;;
66987;SDS011;53908;51.464;-2.588;2022-10-31T15:56:05;10.00;;;2.58;;
66987;SDS011;53908;51.464;-2.588;2022-10-31T15:58:33;5.13;;;1.77;;
66987;SDS011;53908;51.464;-2.588;2022-10-31T16:01:35;7.47;;;2.17;;
66987;SDS011;53908;51.464;-2.588;2022-10-31T16:04:01;8.93;;;2.40;;
66987;SDS011;53908;51.464;-2.588;2022-10-31T16:06:51;6.55;;;2.78;;
66987;SDS011;53908;51.464;-2.588;2022-10-31T16:09:24;11.93;;;2.95;;
66987;SDS011;53908;51.464;-2.588;2022-10-31T16:11:50;16.17;;;3.90;;
66987;SDS011;53908;51.464;-2.588;2022-10-31T16:14:16;10.13;;;3.60;;
66987;SDS011;53908;51.464;-2.588;2022-10-31T16:16:54;15.23;;;4.75;;
66987;SDS011;53908;51.464;-2.588;2022-10-31T16:19:23;11.13;;;4.40;;
66987;SDS011;53908;51.464;-2.588;2022-10-31T16:22:03;14.48;;;3.60;;
66987;SDS011;53908;51.464;-2.588;2022-10-31T16:24:35;11.55;;;3.33;;
66987;SDS011;53908;51.464;-2.588;2022-10-31T16:27:19;10.00;;;2.20;;
66987;SDS011;53908;51.464;-2.588;2022-10-31T16:29:52;10.73;;;2.80;;
66987;SDS011;53908;51.464;-2.588;2022-10-31T16:37:33;5.72;;;2.00;;
66987;SDS011;53908;51.464;-2.588;2022-10-31T16:39:59;7.85;;;1.83;;
66987;SDS011;53908;51.464;-2.588;2022-10-31T16:42:24;8.95;;;2.10;;
66987;SDS011;53908;51.464;-2.588;2022-10-31T16:44:49;9.93;;;1.90;;
66987;SDS011;53908;51.464;-2.588;2022-10-31T16:47:15;8.80;;;2.25;;
66987;SDS011;53908;51.464;-2.588;2022-10-31T16:49:42;7.15;;;1.75;;
66987;SDS011;53908;51.464;-2.588;2022-10-31T16:52:08;7.25;;;1.77;;